Time,TemperatureF,DewpointF,PressureIn,WindDirection,WindDirectionDegrees,WindSpeedMPH,WindSpeedGustMPH,Humidity,HourlyPrecipIn,Conditions,Clouds,dailyrainin,SoftwareType,DateUTC
2013-07-12 00:04:00,82.4,73.7,29.86,SSE,157,1.1,-999.0,75,-99.99,,,0.00,Acu-Link.com,2013-07-12 05:04:00,
2013-07-12 00:19:00,81.9,73.9,29.87,ENE,67,0.0,-999.0,77,-99.99,,,0.00,Acu-Link.com,2013-07-12 05:19:00,
2013-07-12 00:34:00,81.7,74.9,29.86,NW,315,0.0,-999.0,80,-99.99,,,0.00,Acu-Link.com,2013-07-12 05:34:00,
2013-07-12 00:49:00,81.3,75.6,29.86,West,270,1.1,-999.0,83,-99.99,,,0.00,Acu-Link.com,2013-07-12 05:49:00,
2013-07-12 00:50:00,81.3,75.6,29.86,West,270,1.1,-999.0,83,-99.99,,,0.00,Acu-Link.com,2013-07-12 05:50:00,
2013-07-12 01:05:00,80.8,75.5,29.86,WSW,247,0.0,-999.0,84,-99.99,,,0.00,Acu-Link.com,2013-07-12 06:05:00,
2013-07-12 01:20:00,80.1,75.5,29.87,SW,225,0.0,-999.0,86,-99.99,,,0.00,Acu-Link.com,2013-07-12 06:20:00,
2013-07-12 01:35:00,79.2,76.3,29.86,ESE,112,0.0,-999.0,91,-99.99,,,0.00,Acu-Link.com,2013-07-12 06:35:00,
2013-07-12 01:50:00,78.6,75.4,29.86,South,180,0.0,-999.0,90,-99.99,,,0.00,Acu-Link.com,2013-07-12 06:50:00,
2013-07-12 02:06:00,77.9,75.4,29.86,SW,225,0.0,-999.0,92,-99.99,,,0.00,Acu-Link.com,2013-07-12 07:06:00,
2013-07-12 02:21:00,77.5,76.0,29.86,WSW,247,0.0,-999.0,95,-99.99,,,0.00,Acu-Link.com,2013-07-12 07:21:00,
2013-07-12 02:36:00,77.5,76.0,29.86,WSW,247,0.0,-999.0,95,-99.99,,,0.00,Acu-Link.com,2013-07-12 07:36:00,
2013-07-12 02:51:00,77.4,76.4,29.86,WSW,247,0.0,-999.0,97,-99.99,,,0.00,Acu-Link.com,2013-07-12 07:51:00,
2013-07-12 03:07:00,77.5,76.3,29.86,WSW,247,0.0,-999.0,96,-99.99,,,0.00,Acu-Link.com,2013-07-12 08:07:00,
2013-07-12 03:22:00,77.7,76.5,29.86,WSW,247,0.0,-999.0,96,-99.99,,,0.00,Acu-Link.com,2013-07-12 08:22:00,
2013-07-12 03:37:00,77.9,76.3,29.86,SSE,157,0.0,-999.0,95,-99.99,,,0.00,Acu-Link.com,2013-07-12 08:37:00,
2013-07-12 03:52:00,77.4,76.1,29.85,ENE,67,0.0,-999.0,96,-99.99,,,0.00,Acu-Link.com,2013-07-12 08:52:00,
2013-07-12 04:07:00,76.3,75.7,29.85,South,180,0.0,-999.0,98,-99.99,,,0.00,Acu-Link.com,2013-07-12 09:07:00,
2013-07-12 04:22:00,75.7,75.1,29.86,SSW,202,0.0,-999.0,98,-99.99,,,0.00,Acu-Link.com,2013-07-12 09:22:00,
2013-07-12 04:38:00,75.4,74.8,29.86,SSE,157,0.0,-999.0,98,-99.99,,,0.00,Acu-Link.com,2013-07-12 09:38:00,
2013-07-12 04:53:00,75.4,74.5,29.86,South,180,0.0,-999.0,97,-99.99,,,0.00,Acu-Link.com,2013-07-12 09:53:00,
2013-07-12 05:08:00,75.0,74.4,29.86,South,180,0.0,-999.0,98,-99.99,,,0.00,Acu-Link.com,2013-07-12 10:08:00,
2013-07-12 05:23:00,74.5,73.9,29.87,South,180,0.0,-999.0,98,-99.99,,,0.00,Acu-Link.com,2013-07-12 10:23:00,
2013-07-12 05:38:00,74.1,73.5,29.87,South,180,0.0,-999.0,98,-99.99,,,0.00,Acu-Link.com,2013-07-12 10:38:00,
2013-07-12 05:54:00,73.9,73.3,29.87,South,180,0.0,-999.0,98,-99.99,,,0.00,Acu-Link.com,2013-07-12 10:54:00,
2013-07-12 06:09:00,73.6,73.0,29.87,South,180,0.0,-999.0,98,-99.99,,,0.00,Acu-Link.com,2013-07-12 11:09:00,
2013-07-12 06:24:00,73.4,72.8,29.88,South,180,0.0,-999.0,98,-99.99,,,0.00,Acu-Link.com,2013-07-12 11:24:00,
2013-07-12 06:39:00,72.9,72.3,29.88,South,180,0.0,-999.0,98,-99.99,,,0.00,Acu-Link.com,2013-07-12 11:39:00,
2013-07-12 06:55:00,72.9,72.3,29.88,South,180,0.0,-999.0,98,-99.99,,,0.00,Acu-Link.com,2013-07-12 11:55:00,
2013-07-12 07:10:00,72.7,72.1,29.89,SSW,202,0.0,-999.0,98,-99.99,,,0.00,Acu-Link.com,2013-07-12 12:10:00,
2013-07-12 07:25:00,75.7,75.1,29.89,South,180,0.0,-999.0,98,-99.99,,,0.00,Acu-Link.com,2013-07-12 12:25:00,
2013-07-12 07:40:00,77.0,76.4,29.89,South,180,0.0,-999.0,98,-99.99,,,0.00,Acu-Link.com,2013-07-12 12:40:00,
2013-07-12 07:55:00,78.3,77.3,29.90,South,180,0.0,-999.0,97,-99.99,,,0.00,Acu-Link.com,2013-07-12 12:55:00,
2013-07-12 08:11:00,81.1,77.2,29.90,South,180,2.7,-999.0,88,-99.99,,,0.00,Acu-Link.com,2013-07-12 13:11:00,
2013-07-12 08:26:00,84.7,77.1,29.90,South,180,2.7,-999.0,78,-99.99,,,0.00,Acu-Link.com,2013-07-12 13:26:00,
2013-07-12 08:41:00,86.5,78.0,29.91,SW,225,2.2,-999.0,76,-99.99,,,0.00,Acu-Link.com,2013-07-12 13:41:00,
2013-07-12 08:56:00,86.4,77.9,29.91,South,180,6.3,-999.0,76,-99.99,,,0.00,Acu-Link.com,2013-07-12 13:56:00,
2013-07-12 09:11:00,88.3,78.6,29.91,West,270,4.7,-999.0,73,-99.99,,,0.00,Acu-Link.com,2013-07-12 14:11:00,
2013-07-12 09:27:00,89.8,77.8,29.91,WNW,292,4.3,-999.0,68,-99.99,,,0.00,Acu-Link.com,2013-07-12 14:27:00,
2013-07-12 09:42:00,90.1,76.8,29.91,WNW,292,0.0,-999.0,65,-99.99,,,0.00,Acu-Link.com,2013-07-12 14:42:00,
2013-07-12 09:57:00,95.0,78.4,29.91,SSW,202,3.8,-999.0,59,-99.99,,,0.00,Acu-Link.com,2013-07-12 14:57:00,
2013-07-12 10:12:00,95.2,76.4,29.91,South,180,2.2,-999.0,55,-99.99,,,0.00,Acu-Link.com,2013-07-12 15:12:00,
2013-07-12 10:27:00,99.0,78.2,29.90,ESE,112,2.7,-999.0,52,-99.99,,,0.00,Acu-Link.com,2013-07-12 15:27:00,
2013-07-12 10:43:00,98.4,76.5,29.91,NNE,22,2.7,-999.0,50,-99.99,,,0.00,Acu-Link.com,2013-07-12 15:43:00,
2013-07-12 10:58:00,99.9,75.3,29.90,WSW,247,6.3,-999.0,46,-99.99,,,0.00,Acu-Link.com,2013-07-12 15:58:00,
2013-07-12 11:13:00,95.5,75.1,29.91,SSW,202,1.6,-999.0,52,-99.99,,,0.00,Acu-Link.com,2013-07-12 16:13:00,
2013-07-12 11:28:00,97.2,74.1,29.91,East,90,2.2,-999.0,48,-99.99,,,0.00,Acu-Link.com,2013-07-12 16:28:00,
2013-07-12 11:44:00,98.2,74.5,29.91,NNE,22,2.7,-999.0,47,-99.99,,,0.00,Acu-Link.com,2013-07-12 16:44:00,
2013-07-12 11:59:00,99.9,73.3,29.90,SSW,202,3.8,-999.0,43,-99.99,,,0.00,Acu-Link.com,2013-07-12 16:59:00,
2013-07-12 12:14:00,99.1,74.0,29.90,ENE,67,4.7,-999.0,45,-99.99,,,0.00,Acu-Link.com,2013-07-12 17:14:00,
2013-07-12 12:29:00,99.3,73.5,29.89,NW,315,3.1,-999.0,44,-99.99,,,0.00,Acu-Link.com,2013-07-12 17:29:00,
2013-07-12 12:44:00,101.3,73.9,29.89,East,90,5.1,-999.0,42,-99.99,,,0.00,Acu-Link.com,2013-07-12 17:44:00,
2013-07-12 13:00:00,99.3,73.5,29.90,ESE,112,1.6,-999.0,44,-99.99,,,0.00,Acu-Link.com,2013-07-12 18:00:00,
2013-07-12 13:15:00,100.6,73.2,29.89,NE,45,1.6,-999.0,42,-99.99,,,0.00,Acu-Link.com,2013-07-12 18:15:00,
2013-07-12 13:30:00,99.0,72.5,29.89,South,180,2.7,-999.0,43,-99.99,,,0.00,Acu-Link.com,2013-07-12 18:30:00,
2013-07-12 13:45:00,99.0,73.2,29.88,South,180,5.8,-999.0,44,-99.99,,,0.00,Acu-Link.com,2013-07-12 18:45:00,
2013-07-12 14:00:00,101.7,72.8,29.88,NE,45,5.1,-999.0,40,-99.99,,,0.00,Acu-Link.com,2013-07-12 19:00:00,
2013-07-12 14:16:00,99.7,71.7,29.87,South,180,1.6,-999.0,41,-99.99,,,0.00,Acu-Link.com,2013-07-12 19:16:00,
2013-07-12 14:31:00,103.8,73.1,29.87,North,0,3.8,-999.0,38,-99.99,,,0.00,Acu-Link.com,2013-07-12 19:31:00,
2013-07-12 14:46:00,105.8,72.4,29.86,SSW,202,4.3,-999.0,35,-99.99,,,0.00,Acu-Link.com,2013-07-12 19:46:00,
2013-07-12 15:01:00,105.4,72.9,29.86,West,270,2.7,-999.0,36,-99.99,,,0.00,Acu-Link.com,2013-07-12 20:01:00,
2013-07-12 15:32:00,106.2,71.9,29.85,SSW,202,4.3,-999.0,34,-99.99,,,0.00,Acu-Link.com,2013-07-12 20:32:00,
2013-07-12 15:47:00,106.3,72.9,29.85,SSE,157,4.3,-999.0,35,-99.99,,,0.00,Acu-Link.com,2013-07-12 20:47:00,
2013-07-12 16:02:00,102.0,70.0,29.85,WSW,247,3.8,-999.0,36,-99.99,,,0.00,Acu-Link.com,2013-07-12 21:02:00,
2013-07-12 16:17:00,104.5,70.5,29.84,SSW,202,4.3,-999.0,34,-99.99,,,0.00,Acu-Link.com,2013-07-12 21:17:00,
2013-07-12 16:33:00,100.2,70.0,29.84,SW,225,1.6,-999.0,38,-99.99,,,0.00,Acu-Link.com,2013-07-12 21:33:00,
2013-07-12 16:48:00,103.5,70.4,29.84,NE,45,1.6,-999.0,35,-99.99,,,0.00,Acu-Link.com,2013-07-12 21:48:00,
2013-07-12 17:03:00,100.0,69.8,29.83,SSW,202,5.1,-999.0,38,-99.99,,,0.00,Acu-Link.com,2013-07-12 22:03:00,
2013-07-12 17:33:00,103.8,71.5,29.83,North,0,1.6,-999.0,36,-99.99,,,0.00,Acu-Link.com,2013-07-12 22:33:00,
2013-07-12 17:49:00,102.7,70.6,29.83,ESE,112,2.7,-999.0,36,-99.99,,,0.00,Acu-Link.com,2013-07-12 22:49:00,
2013-07-12 18:04:00,100.8,69.7,29.82,ESE,112,2.2,-999.0,37,-99.99,,,0.00,Acu-Link.com,2013-07-12 23:04:00,
2013-07-12 18:19:00,98.8,68.7,29.82,SW,225,2.7,-999.0,38,-99.99,,,0.00,Acu-Link.com,2013-07-12 23:19:00,
2013-07-12 18:34:00,99.1,69.0,29.82,South,180,1.1,-999.0,38,-99.99,,,0.00,Acu-Link.com,2013-07-12 23:34:00,
2013-07-12 18:49:00,100.0,69.0,29.81,WSW,247,3.1,-999.0,37,-99.99,,,0.00,Acu-Link.com,2013-07-12 23:49:00,
2013-07-12 19:05:00,100.6,67.9,29.82,NE,45,2.2,-999.0,35,-99.99,,,0.00,Acu-Link.com,2013-07-13 00:05:00,
2013-07-12 19:20:00,99.9,68.1,29.81,South,180,2.7,-999.0,36,-99.99,,,0.00,Acu-Link.com,2013-07-13 00:20:00,
2013-07-12 19:35:00,98.4,67.6,29.81,South,180,2.2,-999.0,37,-99.99,,,0.00,Acu-Link.com,2013-07-13 00:35:00,
2013-07-12 19:50:00,98.1,68.1,29.82,East,90,2.7,-999.0,38,-99.99,,,0.00,Acu-Link.com,2013-07-13 00:50:00,
2013-07-12 20:05:00,97.2,68.0,29.82,WSW,247,3.1,-999.0,39,-99.99,,,0.00,Acu-Link.com,2013-07-13 01:05:00,
2013-07-12 20:21:00,95.7,67.5,29.82,NNW,337,2.2,-999.0,40,-99.99,,,0.00,Acu-Link.com,2013-07-13 01:21:00,
2013-07-12 20:36:00,94.6,67.9,29.82,SSE,157,3.8,-999.0,42,-99.99,,,0.00,Acu-Link.com,2013-07-13 01:36:00,
2013-07-12 20:51:00,93.0,67.8,29.83,South,180,2.2,-999.0,44,-99.99,,,0.00,Acu-Link.com,2013-07-13 01:51:00,
2013-07-12 21:06:00,91.9,68.2,29.83,South,180,0.0,-999.0,46,-99.99,,,0.00,Acu-Link.com,2013-07-13 02:06:00,
2013-07-12 21:22:00,90.9,67.8,29.83,SE,135,2.2,-999.0,47,-99.99,,,0.00,Acu-Link.com,2013-07-13 02:22:00,
2013-07-12 21:37:00,89.6,67.9,29.83,WNW,292,0.0,-999.0,49,-99.99,,,0.00,Acu-Link.com,2013-07-13 02:37:00,
2013-07-12 21:52:00,88.2,67.7,29.84,West,270,0.0,-999.0,51,-99.99,,,0.00,Acu-Link.com,2013-07-13 02:52:00,
2013-07-12 22:07:00,86.9,67.1,29.84,South,180,0.0,-999.0,52,-99.99,,,0.00,Acu-Link.com,2013-07-13 03:07:00,
2013-07-12 22:22:00,86.0,67.4,29.84,West,270,0.0,-999.0,54,-99.99,,,0.00,Acu-Link.com,2013-07-13 03:22:00,
2013-07-12 22:38:00,84.9,66.9,29.85,West,270,0.0,-999.0,55,-99.99,,,0.00,Acu-Link.com,2013-07-13 03:38:00,
2013-07-12 22:53:00,83.8,67.0,29.85,West,270,0.0,-999.0,57,-99.99,,,0.00,Acu-Link.com,2013-07-13 03:53:00,
2013-07-12 23:08:00,82.4,66.6,29.85,SE,135,0.0,-999.0,59,-99.99,,,0.00,Acu-Link.com,2013-07-13 04:08:00,
2013-07-12 23:23:00,81.7,65.9,29.86,SSW,202,0.0,-999.0,59,-99.99,,,0.00,Acu-Link.com,2013-07-13 04:23:00,
2013-07-12 23:38:00,81.0,66.2,29.86,SE,135,0.0,-999.0,61,-99.99,,,0.00,Acu-Link.com,2013-07-13 04:38:00,
2013-07-12 23:54:00,80.8,67.0,29.86,SW,225,0.0,-999.0,63,-99.99,,,0.00,Acu-Link.com,2013-07-13 04:54:00,